Friday, January 19, 2018, 2:28 AM EST
Back to Local

KJST, Johnstown-cambria Co Airport

Location: Johnstown, PA, United States Lat: 40.317
Local Time: 2:28 AM EST ( 7:28 GMT) Lon: -78.833
Time Zone: US/Eastern Elev: 2283 ft

Show me the last for .
Show Decoded

2018-01-19 01:54 METAR KJST 190654Z AUTO 23016KT 10SM CLR M04/M13 A2998 RMK AO2 PK WND 24027/0629
                 SLP186 T10441128 =
2018-01-19 00:54 METAR KJST 190554Z AUTO 23016KT 10SM CLR M04/M13 A2999 RMK AO2 PK WND 24026/0526
                 SLP190 T10441128 11044 21061 58015 =
2018-01-18 23:54 METAR KJST 190454Z AUTO 23014KT 10SM CLR M05/M12 A3001 RMK AO2 SLP199 T10501122
                 410441144 =
2018-01-18 22:54 METAR KJST 190354Z AUTO 24016G24KT 10SM CLR M05/M12 A3003 RMK AO2 SLP205
                 T10501122 =
2018-01-18 21:54 METAR KJST 190254Z AUTO 25015G22KT 10SM CLR M05/M13 A3004 RMK AO2 SLP208
                 T10501128 50008 =
2018-01-18 20:54 METAR KJST 190154Z AUTO 26017KT 10SM CLR M06/M13 A3004 RMK AO2 PK WND 25027/0113
                 SLP211 T10561128 =
2018-01-18 19:54 METAR KJST 190054Z AUTO 26018G28KT 10SM CLR M06/M13 A3003 RMK AO2 PK WND
                 27028/0048 SLP209 T10561128 =
2018-01-18 18:54 METAR KJST 182354Z AUTO 26017G23KT 10SM CLR M06/M13 A3001 RMK AO2 SLP204
                 T10611133 11050 21067 53008 =
2018-01-18 17:54 METAR KJST 182254Z AUTO 26016KT 10SM CLR M06/M13 A3000 RMK AO2 PK WND 26026/2235
                 SLP200 T10611133 =
2018-01-18 16:54 METAR KJST 182154Z AUTO 26017G24KT 10SM CLR M06/M13 A3000 RMK AO2 PK WND
                 26028/2137 SLP200 T10561133 =
2018-01-18 15:54 METAR KJST 182054Z AUTO 26016KT 10SM CLR M05/M13 A2999 RMK AO2 PK WND 27028/2021
                 SLP196 T10501133 55007 =
2018-01-18 14:54 METAR KJST 181954Z AUTO 26015G23KT 10SM CLR M05/M13 A2999 RMK AO2 PK WND
                 26032/1856 SLP196 T10501128 =
2018-01-18 13:54 METAR KJST 181854Z AUTO 27021G29KT 10SM CLR M06/M13 A3000 RMK AO2 PK WND
                 26030/1757 SLP202 T10561133 =
2018-01-18 12:54 METAR KJST 181754Z AUTO 26016G27KT 10SM CLR M07/M14 A3001 RMK AO2 PK WND
                 27030/1700 SLP207 60000 T10671139 11067 21122 58017 =
2018-01-18 11:54 METAR KJST 181654Z AUTO 27020G31KT 8SM CLR M08/M14 A3003 RMK AO2 PK WND
                 27033/1638 UPB35E51 SLP216 P0000 T10781144 =
2018-01-18 10:54 METAR KJST 181554Z AUTO 27020G26KT 10SM CLR M08/M15 A3006 RMK AO2 PK WND
                 27029/1459 SLP225 T10781150 =
2018-01-18 09:54 METAR KJST 181454Z AUTO 27020G29KT 5SM HZ CLR M08/M16 A3006 RMK AO2 PK WND
                 26031/1414 UPB18E31 SLP226 P0000 60000 T10831161 55002 =
2018-01-18 09:24 METAR KJST 181424Z AUTO 26018G27KT 4SM UP FEW002 M09/M16 A3005 RMK AO2 PK WND
                 26031/1414 UPB18 P0000 T10891161 =
2018-01-18 08:54 METAR KJST 181354Z AUTO 25016G28KT 8SM CLR M09/M17 A3005 RMK AO2 PK WND
                 24029/1322 SLP223 T10941167 =
2018-01-18 07:54 METAR KJST 181254Z AUTO 25015G24KT 9SM CLR M11/M17 A3006 RMK AO2 SLP224
                 T11061167 =
2018-01-18 06:54 METAR KJST 181154Z AUTO 23015KT 10SM CLR M12/M16 A3007 RMK AO2 SLP230 60000
                 T11221161 11122 21144 57012 =
2018-01-18 05:54 METAR KJST 181054Z AUTO 25014G25KT 10SM CLR M13/M16 A3008 RMK AO2 SLP237
                 T11281156 =
2018-01-18 04:54 METAR KJST 180954Z AUTO 25014KT 10SM FEW009 M13/M16 A3009 RMK AO2 SLP240
                 T11331156 =
2018-01-18 04:03 METAR KJST 180903Z AUTO 26011KT 10SM SCT009 SCT120 M14/M16 A3011 RMK AO2
                 T11391156 =
2018-01-18 03:54 METAR KJST 180854Z AUTO 26011KT 8SM BKN009 BKN120 M14/M16 A3011 RMK AO2 SNE05
                 SLP246 P0000 60000 T11391156 56007 =
2018-01-18 03:34 METAR KJST 180834Z AUTO 25012KT 6SM BR OVC010 M14/M16 A3011 RMK AO2 SNE05 P0000
                 T11391156 =
2018-01-18 02:54 METAR KJST 180754Z AUTO 26012KT 4SM -SN BR OVC009 M14/M16 A3012 RMK AO2 SLP251
                 P0000 T11391156 =

Support USWX by starting your Amazon purchase here.